createdAt,value
2018-09-20T00:00:40.603Z,1009.58
2018-09-20T00:01:40.584Z,1009.56
2018-09-20T00:02:40.577Z,1009.54
2018-09-20T00:03:40.566Z,1009.55
2018-09-20T00:04:40.553Z,1009.59
2018-09-20T00:05:40.540Z,1009.5
2018-09-20T00:06:40.528Z,1009.5
2018-09-20T00:07:40.518Z,1009.51
2018-09-20T00:08:40.506Z,1009.47
2018-09-20T00:09:40.493Z,1009.5
2018-09-20T00:10:40.483Z,1009.5
2018-09-20T00:11:40.470Z,1009.47
2018-09-20T00:12:40.459Z,1009.49
2018-09-20T00:13:40.446Z,1009.49
2018-09-20T00:14:40.436Z,1009.53
2018-09-20T00:15:40.424Z,1009.49
2018-09-20T00:16:40.417Z,1009.46
2018-09-20T00:17:40.401Z,1009.41
2018-09-20T00:18:40.394Z,1009.38
2018-09-20T00:19:40.376Z,1009.41
2018-09-20T00:20:40.367Z,1009.36
2018-09-20T00:21:40.359Z,1009.33
2018-09-20T00:22:40.346Z,1009.35
2018-09-20T00:23:40.332Z,1009.35
2018-09-20T00:24:40.321Z,1009.32
2018-09-20T00:25:40.310Z,1009.29
2018-09-20T00:26:40.297Z,1009.31
2018-09-20T00:27:40.289Z,1009.31
2018-09-20T00:28:40.274Z,1009.3
2018-09-20T00:29:40.308Z,1009.28
2018-09-20T00:30:40.251Z,1009.25
2018-09-20T00:31:40.240Z,1009.24
2018-09-20T00:32:40.228Z,1009.23
2018-09-20T00:33:40.217Z,1009.23
2018-09-20T00:34:40.204Z,1009.24
2018-09-20T00:35:40.195Z,1009.18
2018-09-20T00:36:40.186Z,1009.18
2018-09-20T00:37:40.169Z,1009.21
2018-09-20T00:38:40.159Z,1009.18
2018-09-20T00:39:40.149Z,1009.17
2018-09-20T00:40:40.137Z,1009.18
2018-09-20T00:41:40.123Z,1009.17
2018-09-20T00:42:40.111Z,1009.14
2018-09-20T00:43:40.101Z,1009.15
2018-09-20T00:44:40.094Z,1009.15
2018-09-20T00:45:40.077Z,1009.2
2018-09-20T00:46:40.067Z,1009.11
2018-09-20T00:47:40.257Z,1009.14
2018-09-20T00:48:40.041Z,1009.09
2018-09-20T00:49:40.029Z,1009.09
2018-09-20T00:50:40.019Z,1009.1
2018-09-20T00:51:40.009Z,1009.09
2018-09-20T00:52:39.996Z,1009.06
2018-09-20T00:53:39.985Z,1009.11
2018-09-20T00:54:39.974Z,1009.03
2018-09-20T00:55:39.960Z,1009.05
2018-09-20T00:56:39.950Z,1009.06
2018-09-20T00:57:39.938Z,1009.11
2018-09-20T00:58:39.927Z,1009.07
2018-09-20T00:59:39.916Z,1009.07
2018-09-20T01:00:39.904Z,1009.12
2018-09-20T01:01:39.894Z,1009.05
2018-09-20T01:02:39.886Z,1009.05
2018-09-20T01:03:39.871Z,1009.07
2018-09-20T01:04:39.858Z,1009.07
2018-09-20T01:05:39.846Z,1009.08
2018-09-20T01:06:39.833Z,1009.11
2018-09-20T01:07:39.827Z,1009.08
2018-09-20T01:08:39.808Z,1009.07
2018-09-20T01:09:39.798Z,1009.08
2018-09-20T01:10:39.795Z,1009.13
2018-09-20T01:11:39.774Z,1009.09
2018-09-20T01:12:39.763Z,1009.11
2018-09-20T01:13:39.752Z,1009.12
2018-09-20T01:14:39.740Z,1009.18
2018-09-20T01:15:39.728Z,1009.16
2018-09-20T01:16:39.717Z,1009.19
2018-09-20T01:17:39.703Z,1009.19
2018-09-20T01:18:39.698Z,1009.16
2018-09-20T01:19:39.680Z,1009.16
2018-09-20T01:20:39.669Z,1009.18
2018-09-20T01:21:39.656Z,1009.17
2018-09-20T01:22:39.648Z,1009.16
2018-09-20T01:23:39.635Z,1009.15
2018-09-20T01:24:39.621Z,1009.09
2018-09-20T01:25:39.608Z,1009.09
2018-09-20T01:26:39.597Z,1009.14
2018-09-20T01:27:39.586Z,1009.14
2018-09-20T01:28:39.574Z,1009.14
2018-09-20T01:29:39.560Z,1009.18
2018-09-20T01:30:39.556Z,1009.11
2018-09-20T01:31:39.539Z,1009.13
2018-09-20T01:32:39.524Z,1009.13
2018-09-20T01:33:39.517Z,1009.15
2018-09-20T01:34:39.506Z,1009.14
2018-09-20T01:35:39.492Z,1009.2
2018-09-20T01:36:39.482Z,1009.2
2018-09-20T01:37:39.468Z,1009.24
2018-09-20T01:38:39.455Z,1009.21
2018-09-20T01:39:39.445Z,1009.22
2018-09-20T01:40:39.430Z,1009.21
2018-09-20T01:41:39.419Z,1009.21
2018-09-20T01:42:39.412Z,1009.2
2018-09-20T01:43:39.394Z,1009.21
2018-09-20T01:44:39.385Z,1009.17
2018-09-20T01:45:39.372Z,1009.2
2018-09-20T01:46:39.357Z,1009.19
2018-09-20T01:47:39.352Z,1009.18
2018-09-20T01:48:39.335Z,1009.19
2018-09-20T01:49:39.324Z,1009.12
2018-09-20T01:50:39.309Z,1009.1
2018-09-20T01:51:39.298Z,1009.14
2018-09-20T01:52:39.287Z,1009.15
2018-09-20T01:53:39.274Z,1009.12
2018-09-20T01:54:39.262Z,1009.11
2018-09-20T01:55:39.255Z,1009.11
2018-09-20T01:56:39.237Z,1009.09
2018-09-20T01:57:39.228Z,1009.11
2018-09-20T01:58:39.213Z,1009.12
2018-09-20T01:59:39.206Z,1009.13
2018-09-20T02:00:39.189Z,1009.12
2018-09-20T02:01:39.177Z,1009.13
2018-09-20T02:02:39.164Z,1009.09
2018-09-20T02:03:39.153Z,1009.11
2018-09-20T02:04:39.144Z,1009.17
2018-09-20T02:05:39.128Z,1009.17
2018-09-20T02:06:39.118Z,1009.17
2018-09-20T02:07:39.107Z,1009.16
2018-09-20T02:08:39.093Z,1009.18
2018-09-20T02:09:39.081Z,1009.19
2018-09-20T02:10:39.067Z,1009.13
2018-09-20T02:11:39.058Z,1009.17
2018-09-20T02:12:39.044Z,1009.12
2018-09-20T02:13:39.034Z,1009.12
2018-09-20T02:14:39.017Z,1009.15
2018-09-20T02:15:39.007Z,1009.09
2018-09-20T02:16:38.994Z,1009.13
2018-09-20T02:17:38.982Z,1009.12
2018-09-20T02:18:38.970Z,1009.11
2018-09-20T02:19:38.960Z,1009.1
2018-09-20T02:20:38.947Z,1009.15
2018-09-20T02:21:38.936Z,1009.17
2018-09-20T02:22:38.921Z,1009.16
2018-09-20T02:23:38.910Z,1009.15
2018-09-20T02:24:38.895Z,1009.16
2018-09-20T02:25:38.884Z,1009.14
2018-09-20T02:26:38.872Z,1009.16
2018-09-20T02:27:38.858Z,1009.18
2018-09-20T02:28:38.848Z,1009.12
2018-09-20T02:29:38.837Z,1009.14
2018-09-20T02:30:38.829Z,1009.15
2018-09-20T02:31:38.814Z,1009.19
2018-09-20T02:32:38.797Z,1009.21
2018-09-20T02:33:38.790Z,1009.2
2018-09-20T02:34:38.773Z,1009.22
2018-09-20T02:35:38.763Z,1009.2
2018-09-20T02:36:38.749Z,1009.19
2018-09-20T02:37:38.737Z,1009.2
2018-09-20T02:38:38.727Z,1009.18
2018-09-20T02:39:38.711Z,1009.23
2018-09-20T02:40:38.702Z,1009.18
2018-09-20T02:41:38.689Z,1009.21
2018-09-20T02:42:38.675Z,1009.23
2018-09-20T02:43:38.661Z,1009.2
2018-09-20T02:44:38.651Z,1009.18
2018-09-20T02:45:38.636Z,1009.2
2018-09-20T02:46:38.625Z,1009.19
2018-09-20T02:47:38.815Z,1009.19
2018-09-20T02:48:38.613Z,1009.23
2018-09-20T02:49:38.588Z,1009.2
2018-09-20T02:50:38.578Z,1009.16
2018-09-20T02:51:38.562Z,1009.15
2018-09-20T02:52:38.550Z,1009.15
2018-09-20T02:53:38.538Z,1009.17
2018-09-20T02:54:38.526Z,1009.16
2018-09-20T02:55:38.516Z,1009.14
2018-09-20T02:56:38.500Z,1009.13
2018-09-20T02:57:38.510Z,1009.13
2018-09-20T02:58:38.477Z,1009.12
2018-09-20T02:59:38.463Z,1009.1
2018-09-20T03:00:38.454Z,1009.12
2018-09-20T03:01:38.438Z,1009.12
2018-09-20T03:02:38.425Z,1009.07
2018-09-20T03:03:38.411Z,1009.09
2018-09-20T03:04:38.400Z,1009.07
2018-09-20T03:05:38.388Z,1009.08
2018-09-20T03:06:38.377Z,1009.06
2018-09-20T03:07:38.364Z,1009.06
2018-09-20T03:08:38.352Z,1009.01
2018-09-20T03:09:38.336Z,1009.04
2018-09-20T03:10:38.326Z,1009.1
2018-09-20T03:11:38.311Z,1009.05
2018-09-20T03:12:38.299Z,1009.09
2018-09-20T03:13:38.289Z,1009.08
2018-09-20T03:14:38.275Z,1009.08
2018-09-20T03:15:38.261Z,1009.08
2018-09-20T03:16:38.249Z,1009.03
2018-09-20T03:17:38.237Z,1009.05
2018-09-20T03:18:38.222Z,1009.03
2018-09-20T03:19:38.211Z,1009.03
2018-09-20T03:20:38.200Z,1009
2018-09-20T03:21:38.187Z,1009.02
2018-09-20T03:22:38.172Z,1009.01
2018-09-20T03:23:38.162Z,1008.99
2018-09-20T03:24:38.148Z,1009.06
2018-09-20T03:25:38.139Z,1008.99
2018-09-20T03:26:38.121Z,1009.03
2018-09-20T03:27:38.108Z,1009.03
2018-09-20T03:28:38.097Z,1009.05
2018-09-20T03:29:38.086Z,1009.04
2018-09-20T03:30:38.177Z,1009.06
2018-09-20T03:31:38.061Z,1009.05
2018-09-20T03:32:38.045Z,1009.07
2018-09-20T03:33:38.051Z,1009.07
2018-09-20T03:34:38.021Z,1009.05
2018-09-20T03:35:38.010Z,1009.04
2018-09-20T03:36:37.995Z,1009.04
2018-09-20T03:37:37.982Z,1009.05
2018-09-20T03:38:37.978Z,1009.07
2018-09-20T03:39:37.960Z,1009.1
2018-09-20T03:40:37.945Z,1009.04
2018-09-20T03:41:37.935Z,1009.03
2018-09-20T03:42:37.924Z,1009.08
2018-09-20T03:43:37.906Z,1009.04
2018-09-20T03:44:37.895Z,1009.02
2018-09-20T03:45:37.881Z,1009.04
2018-09-20T03:46:37.871Z,1009.02
2018-09-20T03:47:37.857Z,1009.05
2018-09-20T03:48:37.851Z,1009.03
2018-09-20T03:49:37.832Z,1009.08
2018-09-20T03:50:37.818Z,1009.07
2018-09-20T03:51:37.804Z,1009.09
2018-09-20T03:52:37.794Z,1009.09
2018-09-20T03:53:37.780Z,1009.1
2018-09-20T03:54:37.767Z,1009.1
2018-09-20T03:55:37.754Z,1009.13
2018-09-20T03:56:37.743Z,1009.12
2018-09-20T03:57:37.730Z,1009.15
2018-09-20T03:58:37.717Z,1009.13
2018-09-20T03:59:37.703Z,1009.11
2018-09-20T04:00:37.691Z,1009.09
2018-09-20T04:01:37.689Z,1009.11
2018-09-20T04:02:37.670Z,1009.06
2018-09-20T04:03:37.654Z,1009.07
2018-09-20T04:04:37.641Z,1009.11
2018-09-20T04:05:37.630Z,1009.06
2018-09-20T04:06:37.619Z,1009.06
2018-09-20T04:07:37.602Z,1009.04
2018-09-20T04:08:37.591Z,1009.09
2018-09-20T04:09:37.598Z,1009.1
2018-09-20T04:10:37.566Z,1009.06
2018-09-20T04:11:37.551Z,1009.1
2018-09-20T04:12:37.539Z,1009.07
2018-09-20T04:13:37.529Z,1009.11
2018-09-20T04:14:37.513Z,1009.09
2018-09-20T04:15:37.503Z,1009.06
2018-09-20T04:16:37.487Z,1009.07
2018-09-20T04:17:37.476Z,1009.07
2018-09-20T04:18:37.462Z,1009.02
2018-09-20T04:19:37.450Z,1009.05
2018-09-20T04:20:37.435Z,1009.04
2018-09-20T04:21:37.423Z,1009.05
2018-09-20T04:22:37.411Z,1009.03
2018-09-20T04:23:37.399Z,1009.02
2018-09-20T04:24:37.387Z,1009.03
2018-09-20T04:25:37.374Z,1009.01
2018-09-20T04:26:37.364Z,1009.04
2018-09-20T04:27:37.349Z,1009.03
2018-09-20T04:28:37.334Z,1009.03
2018-09-20T04:29:37.322Z,1009.05
2018-09-20T04:30:37.309Z,1009.04
2018-09-20T04:31:37.301Z,1009.05
2018-09-20T04:32:37.287Z,1009.05
2018-09-20T04:33:37.271Z,1009.04
2018-09-20T04:34:37.257Z,1009.02
2018-09-20T04:35:37.246Z,1009.02
2018-09-20T04:36:37.235Z,1009.03
2018-09-20T04:37:37.220Z,1009.06
2018-09-20T04:38:37.208Z,1009.06
2018-09-20T04:39:37.193Z,1009.05
2018-09-20T04:40:37.180Z,1009.07
2018-09-20T04:41:37.169Z,1009.1
2018-09-20T04:42:37.156Z,1009.08
2018-09-20T04:43:37.147Z,1009.11
2018-09-20T04:44:37.131Z,1009.13
2018-09-20T04:45:37.117Z,1009.09
2018-09-20T04:46:37.104Z,1009.09
2018-09-20T04:47:37.298Z,1009.11
2018-09-20T04:48:37.080Z,1009.13
2018-09-20T04:49:37.069Z,1009.12
2018-09-20T04:50:37.054Z,1009.16
2018-09-20T04:51:37.042Z,1009.16
2018-09-20T04:52:37.028Z,1009.11
2018-09-20T04:53:37.017Z,1009.15
2018-09-20T04:54:37.008Z,1009.17
2018-09-20T04:55:36.992Z,1009.16
2018-09-20T04:56:36.983Z,1009.16
2018-09-20T04:57:36.967Z,1009.13
2018-09-20T04:58:36.957Z,1009.13
2018-09-20T04:59:36.941Z,1009.17
2018-09-20T05:00:36.925Z,1009.13
2018-09-20T05:01:36.913Z,1009.12
2018-09-20T05:02:36.902Z,1009.15
2018-09-20T05:03:36.892Z,1009.13
2018-09-20T05:04:36.876Z,1009.13
2018-09-20T05:05:36.863Z,1009.18
2018-09-20T05:06:36.858Z,1009.14
2018-09-20T05:07:36.836Z,1009.18
2018-09-20T05:08:36.823Z,1009.2
2018-09-20T05:09:36.891Z,1009.18
2018-09-20T05:10:36.800Z,1009.13
2018-09-20T05:11:36.785Z,1009.12
2018-09-20T05:12:36.774Z,1009.13
2018-09-20T05:13:36.758Z,1009.13
2018-09-20T05:14:36.746Z,1009.08
2018-09-20T05:15:36.733Z,1009.07
2018-09-20T05:16:36.721Z,1009.05
2018-09-20T05:17:36.708Z,1009.06
2018-09-20T05:18:36.700Z,1009.04
2018-09-20T05:19:36.686Z,1009.03
2018-09-20T05:20:36.668Z,1009.03
2018-09-20T05:21:36.659Z,1009.08
2018-09-20T05:22:36.643Z,1009.08
2018-09-20T05:23:36.631Z,1009.09
2018-09-20T05:24:36.620Z,1009.14
2018-09-20T05:25:36.606Z,1009.09
2018-09-20T05:26:36.593Z,1009.07
2018-09-20T05:27:36.582Z,1009.11
2018-09-20T05:28:36.567Z,1009.13
2018-09-20T05:29:36.559Z,1009.11
2018-09-20T05:30:36.548Z,1009.09
2018-09-20T05:31:36.531Z,1009.14
2018-09-20T05:32:36.525Z,1009.08
2018-09-20T05:33:36.520Z,1009.12
2018-09-20T05:34:36.493Z,1009.09
2018-09-20T05:35:36.589Z,1009.1
2018-09-20T05:36:36.474Z,1009.04
2018-09-20T05:37:36.456Z,1009.05
2018-09-20T05:38:36.448Z,1009.07
2018-09-20T05:39:36.431Z,1009.05
2018-09-20T05:40:36.416Z,1009.09
2018-09-20T05:41:36.402Z,1009.04
2018-09-20T05:42:36.391Z,1009.08
2018-09-20T05:43:36.409Z,1009.05
2018-09-20T05:44:36.369Z,1009.03
2018-09-20T05:45:36.353Z,1009.01
2018-09-20T05:46:36.339Z,1009.05
2018-09-20T05:47:36.327Z,1009.01
2018-09-20T05:48:36.317Z,1009.01
2018-09-20T05:49:36.305Z,1009
2018-09-20T05:50:36.312Z,1009
2018-09-20T05:51:36.284Z,1009
2018-09-20T05:52:36.263Z,1008.99
2018-09-20T05:53:36.251Z,1008.99
2018-09-20T05:54:36.241Z,1009
2018-09-20T05:55:36.235Z,1009.02
2018-09-20T05:56:36.216Z,1009.06
2018-09-20T05:57:36.202Z,1009.06
2018-09-20T05:58:36.192Z,1009.05
2018-09-20T05:59:36.183Z,1009.06
2018-09-20T06:00:36.170Z,1009.05
2018-09-20T06:01:36.164Z,1009.04
2018-09-20T06:02:36.141Z,1009.13
2018-09-20T06:03:36.128Z,1009.08
2018-09-20T06:04:36.114Z,1009.09
2018-09-20T06:05:36.128Z,1009.09
2018-09-20T06:06:36.087Z,1009.08
2018-09-20T06:07:36.077Z,1009.13
2018-09-20T06:08:36.069Z,1009.17
2018-09-20T06:09:36.051Z,1009.15
2018-09-20T06:10:36.041Z,1009.14
2018-09-20T06:11:36.029Z,1009.15
2018-09-20T06:12:36.013Z,1009.14
2018-09-20T06:13:36.001Z,1009.12
2018-09-20T06:14:35.989Z,1009.07
2018-09-20T06:15:35.979Z,1009.12
2018-09-20T06:16:35.967Z,1009.16
2018-09-20T06:17:35.950Z,1009.15
2018-09-20T06:18:35.939Z,1009.13
2018-09-20T06:19:35.926Z,1009.14
2018-09-20T06:20:35.915Z,1009.13
2018-09-20T06:21:35.902Z,1009.12
2018-09-20T06:22:35.888Z,1009.12
2018-09-20T06:23:35.878Z,1009.15
2018-09-20T06:24:35.866Z,1009.11
2018-09-20T06:25:35.854Z,1009.16
2018-09-20T06:26:35.840Z,1009.14
2018-09-20T06:27:35.898Z,1009.12
2018-09-20T06:28:35.817Z,1009.13
2018-09-20T06:29:35.805Z,1009.15
2018-09-20T06:30:35.791Z,1009.19
2018-09-20T06:31:35.776Z,1009.15
2018-09-20T06:32:35.765Z,1009.15
2018-09-20T06:33:35.754Z,1009.15
2018-09-20T06:34:35.746Z,1009.17
2018-09-20T06:35:35.728Z,1009.16
2018-09-20T06:36:35.717Z,1009.23
2018-09-20T06:37:35.706Z,1009.18
2018-09-20T06:38:35.693Z,1009.23
2018-09-20T06:39:35.679Z,1009.21
2018-09-20T06:40:35.673Z,1009.24
2018-09-20T06:41:35.657Z,1009.23
2018-09-20T06:42:35.646Z,1009.19
2018-09-20T06:43:35.680Z,1009.23
2018-09-20T06:44:35.620Z,1009.23
2018-09-20T06:45:35.614Z,1009.21
2018-09-20T06:46:35.597Z,1009.22
2018-09-20T06:47:35.790Z,1009.24
2018-09-20T06:48:35.572Z,1009.23
2018-09-20T06:49:35.559Z,1009.23
2018-09-20T06:50:35.548Z,1009.19
2018-09-20T06:51:35.546Z,1009.17
2018-09-20T06:52:35.525Z,1009.16
2018-09-20T06:53:35.517Z,1009.17
2018-09-20T06:54:35.500Z,1009.14
2018-09-20T06:55:35.489Z,1009.12
2018-09-20T06:56:35.535Z,1009.1
2018-09-20T06:57:35.468Z,1009.1
2018-09-20T06:58:35.451Z,1009.08
2018-09-20T06:59:35.444Z,1009.11
2018-09-20T07:00:35.429Z,1009.12
2018-09-20T07:01:35.421Z,1009.11
2018-09-20T07:02:35.409Z,1009.12
2018-09-20T07:03:35.403Z,1009.12
2018-09-20T07:04:35.384Z,1009.1
2018-09-20T07:05:35.371Z,1009.02
2018-09-20T07:06:35.364Z,1009.01
2018-09-20T07:07:35.348Z,1009.01
2018-09-20T07:08:35.335Z,1009.02
2018-09-20T07:09:35.325Z,1009.03
2018-09-20T07:10:35.318Z,1009.02
2018-09-20T07:11:35.302Z,1009.04
2018-09-20T07:12:35.294Z,1008.99
2018-09-20T07:13:35.306Z,1009.04
2018-09-20T07:14:35.270Z,1009.02
2018-09-20T07:15:35.259Z,1009
2018-09-20T07:16:35.247Z,1008.98
2018-09-20T07:17:35.234Z,1008.96
2018-09-20T07:18:35.223Z,1008.91
2018-09-20T07:19:35.213Z,1008.94
2018-09-20T07:20:35.204Z,1008.95
2018-09-20T07:21:35.190Z,1008.98
2018-09-20T07:22:35.177Z,1008.98
2018-09-20T07:23:35.168Z,1008.97
2018-09-20T07:24:35.157Z,1008.97
2018-09-20T07:25:35.174Z,1008.98
2018-09-20T07:26:35.135Z,1008.94
2018-09-20T07:27:35.130Z,1008.97
2018-09-20T07:28:35.113Z,1008.97
2018-09-20T07:29:35.103Z,1008.93
2018-09-20T07:30:35.093Z,1008.93
2018-09-20T07:31:35.082Z,1008.92
2018-09-20T07:32:35.080Z,1008.89
2018-09-20T07:33:35.058Z,1008.89
2018-09-20T07:34:35.046Z,1008.93
2018-09-20T07:35:35.085Z,1008.93
2018-09-20T07:36:35.025Z,1008.94
2018-09-20T07:37:35.014Z,1008.87
2018-09-20T07:38:35.004Z,1008.93
2018-09-20T07:39:34.995Z,1008.92
2018-09-20T07:40:34.984Z,1008.88
2018-09-20T07:41:34.973Z,1008.9
2018-09-20T07:42:34.960Z,1008.89
2018-09-20T07:43:35.190Z,1008.89
2018-09-20T07:44:34.937Z,1008.91
2018-09-20T07:45:34.929Z,1008.91
2018-09-20T07:46:34.927Z,1008.89
2018-09-20T07:47:34.910Z,1008.87
2018-09-20T07:48:34.897Z,1008.89
2018-09-20T07:49:34.885Z,1008.99
2018-09-20T07:50:34.876Z,1008.9
2018-09-20T07:51:34.866Z,1008.95
2018-09-20T07:52:34.856Z,1008.94
2018-09-20T07:53:34.904Z,1008.89
2018-09-20T07:54:34.838Z,1008.92
2018-09-20T07:55:34.823Z,1008.9
2018-09-20T07:56:34.829Z,1008.91
2018-09-20T07:57:34.806Z,1008.95
2018-09-20T07:58:34.792Z,1008.94
2018-09-20T07:59:34.782Z,1008.95
2018-09-20T08:00:34.774Z,1008.98
2018-09-20T08:01:34.830Z,1009.04
2018-09-20T08:02:34.752Z,1009.01
2018-09-20T08:03:34.743Z,1008.99
2018-09-20T08:04:34.732Z,1008.96
2018-09-20T08:05:34.728Z,1009.04
2018-09-20T08:06:34.712Z,1008.97
2018-09-20T08:07:34.704Z,1008.97
2018-09-20T08:08:34.693Z,1008.96
2018-09-20T08:09:34.683Z,1009
2018-09-20T08:10:34.676Z,1008.99
2018-09-20T08:11:34.671Z,1009.01
2018-09-20T08:12:34.655Z,1009.08
2018-09-20T08:13:34.645Z,1009.15
2018-09-20T08:14:34.635Z,1009.18
2018-09-20T08:15:34.631Z,1009.14
2018-09-20T08:16:34.618Z,1009.17
2018-09-20T08:17:34.607Z,1009.15
2018-09-20T08:18:34.596Z,1009.14
2018-09-20T08:19:34.588Z,1009.22
2018-09-20T08:20:34.580Z,1009.2
2018-09-20T08:21:34.594Z,1009.2
2018-09-20T08:22:34.561Z,1009.19
2018-09-20T08:23:34.552Z,1009.21
2018-09-20T08:24:34.543Z,1009.18
2018-09-20T08:25:34.533Z,1009.2
2018-09-20T08:26:34.522Z,1009.17
2018-09-20T08:27:34.516Z,1009.16
2018-09-20T08:28:34.505Z,1009.16
2018-09-20T08:29:34.500Z,1009.18
2018-09-20T08:30:34.489Z,1009.18
2018-09-20T08:31:34.475Z,1009.19
2018-09-20T08:32:34.466Z,1009.21
2018-09-20T08:33:34.457Z,1009.21
2018-09-20T08:34:34.446Z,1009.19
2018-09-20T08:35:34.447Z,1009.19
2018-09-20T08:36:34.429Z,1009.17
2018-09-20T08:37:34.485Z,1009.21
2018-09-20T08:38:34.409Z,1009.21
2018-09-20T08:39:34.400Z,1009.24
2018-09-20T08:40:34.390Z,1009.2
2018-09-20T08:41:34.380Z,1009.22
2018-09-20T08:42:34.372Z,1009.28
2018-09-20T08:43:34.374Z,1009.27
2018-09-20T08:44:34.352Z,1009.19
2018-09-20T08:45:34.344Z,1009.17
2018-09-20T08:46:34.336Z,1009.23
2018-09-20T08:47:34.328Z,1009.24
2018-09-20T08:48:34.317Z,1009.2
2018-09-20T08:49:34.308Z,1009.22
2018-09-20T08:50:34.298Z,1009.27
2018-09-20T08:51:34.288Z,1009.28
2018-09-20T08:52:34.279Z,1009.27
2018-09-20T08:53:34.270Z,1009.17
2018-09-20T08:54:34.263Z,1009.2
2018-09-20T08:55:34.250Z,1009.16
2018-09-20T08:56:34.241Z,1009.18
2018-09-20T08:57:34.233Z,1009.15
2018-09-20T08:58:34.223Z,1009.09
2018-09-20T08:59:34.213Z,1009.06
2018-09-20T09:00:34.205Z,1009.1
2018-09-20T09:01:34.193Z,1009.08
2018-09-20T09:02:34.189Z,1009.11
2018-09-20T09:03:34.176Z,1009.09
2018-09-20T09:04:34.172Z,1009.11
2018-09-20T09:05:34.166Z,1009.1
2018-09-20T09:06:34.148Z,1009.08
2018-09-20T09:07:34.143Z,1009.1
2018-09-20T09:08:34.130Z,1009.09
2018-09-20T09:09:34.120Z,1009.09
2018-09-20T09:10:34.111Z,1009.06
2018-09-20T09:11:34.106Z,1009.08
2018-09-20T09:12:34.095Z,1009.04
2018-09-20T09:13:34.083Z,1009.02
2018-09-20T09:14:34.074Z,1009.04
2018-09-20T09:15:34.067Z,1009.02
2018-09-20T09:16:34.060Z,1009.01
2018-09-20T09:17:34.047Z,1008.98
2018-09-20T09:18:34.040Z,1008.97
2018-09-20T09:19:34.063Z,1008.99
2018-09-20T09:20:34.019Z,1008.95
2018-09-20T09:21:34.018Z,1008.92
2018-09-20T09:22:34.006Z,1008.95
2018-09-20T09:23:34.002Z,1008.93
2018-09-20T09:24:33.990Z,1008.98
2018-09-20T09:25:33.979Z,1008.97
2018-09-20T09:26:33.967Z,1008.8
2018-09-20T09:27:33.956Z,1008.83
2018-09-20T09:28:34.029Z,1008.81
2018-09-20T09:29:33.940Z,1008.88
2018-09-20T09:30:33.930Z,1008.8
2018-09-20T09:31:33.921Z,1008.77
2018-09-20T09:32:33.915Z,1008.81
2018-09-20T09:33:33.907Z,1008.86
2018-09-20T09:34:33.896Z,1008.8
2018-09-20T09:35:33.886Z,1008.81
2018-09-20T09:36:33.878Z,1008.8
2018-09-20T09:37:33.874Z,1008.76
2018-09-20T09:38:33.859Z,1008.78
2018-09-20T09:39:33.854Z,1008.74
2018-09-20T09:40:33.843Z,1008.72
2018-09-20T09:41:33.833Z,1008.65
2018-09-20T09:42:33.825Z,1008.68
2018-09-20T09:43:33.817Z,1008.68
2018-09-20T09:44:33.810Z,1008.65
2018-09-20T09:45:33.798Z,1008.69
2018-09-20T09:46:33.795Z,1008.64
2018-09-20T09:47:33.783Z,1008.65
2018-09-20T09:48:33.793Z,1008.62
2018-09-20T09:49:33.770Z,1008.63
2018-09-20T09:50:33.761Z,1008.58
2018-09-20T09:51:33.749Z,1008.67
2018-09-20T09:52:33.740Z,1008.56
2018-09-20T09:53:33.732Z,1008.53
2018-09-20T09:54:33.794Z,1008.54
2018-09-20T09:55:33.720Z,1008.59
2018-09-20T09:56:33.706Z,1008.55
2018-09-20T09:57:33.701Z,1008.6
2018-09-20T09:58:33.692Z,1008.71
2018-09-20T09:59:33.687Z,1008.59
2018-09-20T10:00:33.675Z,1008.66
2018-09-20T10:01:33.667Z,1008.66
2018-09-20T10:02:33.679Z,1008.61
2018-09-20T10:03:33.657Z,1008.59
2018-09-20T10:04:33.642Z,1008.57
2018-09-20T10:05:33.642Z,1008.48
2018-09-20T10:06:33.628Z,1008.59
2018-09-20T10:07:33.626Z,1008.54
2018-09-20T10:08:33.610Z,1008.57
2018-09-20T10:09:33.604Z,1008.56
2018-09-20T10:10:33.600Z,1008.59
2018-09-20T10:11:33.586Z,1008.59
2018-09-20T10:12:33.580Z,1008.58
2018-09-20T10:13:33.814Z,1008.56
2018-09-20T10:14:33.564Z,1008.52
2018-09-20T10:15:33.557Z,1008.5
2018-09-20T10:16:33.549Z,1008.49
2018-09-20T10:17:33.542Z,1008.53
2018-09-20T10:18:33.532Z,1008.49
2018-09-20T10:19:33.524Z,1008.52
2018-09-20T10:20:33.520Z,1008.48
2018-09-20T10:21:33.512Z,1008.5
2018-09-20T10:22:33.505Z,1008.54
2018-09-20T10:23:33.496Z,1008.46
2018-09-20T10:24:33.491Z,1008.49
2018-09-20T10:25:33.485Z,1008.49
2018-09-20T10:26:33.477Z,1008.45
2018-09-20T10:27:33.466Z,1008.36
2018-09-20T10:28:33.460Z,1008.37
2018-09-20T10:29:33.452Z,1008.37
2018-09-20T10:30:33.445Z,1008.39
2018-09-20T10:31:33.490Z,1008.4
2018-09-20T10:32:33.432Z,1008.38
2018-09-20T10:33:33.423Z,1008.4
2018-09-20T10:34:33.415Z,1008.52
2018-09-20T10:35:33.407Z,1008.53
2018-09-20T10:36:33.402Z,1008.49
2018-09-20T10:37:33.395Z,1008.47
2018-09-20T10:38:33.391Z,1008.4
2018-09-20T10:39:33.381Z,1008.49
2018-09-20T10:40:33.372Z,1008.46
2018-09-20T10:41:33.368Z,1008.49
2018-09-20T10:42:33.360Z,1008.51
2018-09-20T10:43:33.352Z,1008.54
2018-09-20T10:44:33.343Z,1008.45
2018-09-20T10:45:33.339Z,1008.45
2018-09-20T10:46:33.330Z,1008.46
2018-09-20T10:47:33.321Z,1008.53
2018-09-20T10:48:33.316Z,1008.37
2018-09-20T10:49:33.314Z,1008.42
2018-09-20T10:50:33.303Z,1008.31
2018-09-20T10:51:33.294Z,1008.35
2018-09-20T10:52:33.289Z,1008.37
2018-09-20T10:53:33.279Z,1008.28
2018-09-20T10:54:33.343Z,1008.37
2018-09-20T10:55:33.265Z,1008.38
2018-09-20T10:56:33.260Z,1008.37
2018-09-20T10:57:33.253Z,1008.3
2018-09-20T10:58:33.248Z,1008.3
2018-09-20T10:59:33.240Z,1008.33
2018-09-20T11:00:33.232Z,1008.32
2018-09-20T11:01:33.230Z,1008.37
2018-09-20T11:02:33.218Z,1008.37
2018-09-20T11:03:33.212Z,1008.26
2018-09-20T11:04:33.203Z,1008.25
2018-09-20T11:05:33.198Z,1008.23
2018-09-20T11:06:33.193Z,1008.26
2018-09-20T11:07:33.184Z,1008.26
2018-09-20T11:08:33.177Z,1008.19
2018-09-20T11:09:33.172Z,1008.16
2018-09-20T11:10:33.309Z,1008.14
2018-09-20T11:11:33.157Z,1008.1
2018-09-20T11:12:33.149Z,1008.17
2018-09-20T11:13:33.142Z,1008.14
2018-09-20T11:14:33.138Z,1008.18
2018-09-20T11:15:33.130Z,1008.12
2018-09-20T11:16:33.122Z,1008.1
2018-09-20T11:17:33.115Z,1008.14
2018-09-20T11:18:33.110Z,1008.07
2018-09-20T11:19:33.108Z,1008.1
2018-09-20T11:20:33.097Z,1008.15
2018-09-20T11:21:33.095Z,1008.12
2018-09-20T11:22:33.083Z,1008.15
2018-09-20T11:23:33.087Z,1008.16
2018-09-20T11:24:33.071Z,1008.17
2018-09-20T11:25:33.066Z,1008.17
2018-09-20T11:26:33.067Z,1008.2
2018-09-20T11:27:33.063Z,1008.14
2018-09-20T11:28:33.047Z,1008.17
2018-09-20T11:29:33.039Z,1008.08
2018-09-20T11:30:33.063Z,1008.09
2018-09-20T11:31:33.031Z,1008.16
2018-09-20T11:32:33.033Z,1008.05
2018-09-20T11:33:33.019Z,1008.17
2018-09-20T11:34:33.015Z,1008.12
2018-09-20T11:35:33.008Z,1008.13
2018-09-20T11:36:33.007Z,1008.09
2018-09-20T11:37:33.002Z,1008.16
2018-09-20T11:38:32.993Z,1008.13
2018-09-20T11:39:32.987Z,1008.2
2018-09-20T11:40:32.982Z,1008.16
2018-09-20T11:41:32.980Z,1008.26
2018-09-20T11:42:32.977Z,1008.24
2018-09-20T11:43:32.971Z,1008.29
2018-09-20T11:44:32.965Z,1008.3
2018-09-20T11:45:32.963Z,1008.2
2018-09-20T11:46:33.006Z,1008.27
2018-09-20T11:47:32.954Z,1008.19
2018-09-20T11:48:32.952Z,1008.16
2018-09-20T11:49:32.947Z,1008.22
2018-09-20T11:50:32.945Z,1008.21
2018-09-20T11:51:32.944Z,1008.17
2018-09-20T11:52:32.941Z,1008.13
2018-09-20T11:53:32.940Z,1008.14
2018-09-20T11:54:32.937Z,1008.28
2018-09-20T11:55:32.935Z,1008.22
2018-09-20T11:56:32.937Z,1008.21
2018-09-20T11:57:32.932Z,1008.25
2018-09-20T11:58:32.931Z,1008.27
2018-09-20T11:59:32.927Z,1008.24
2018-09-20T12:00:32.926Z,1008.11
2018-09-20T12:01:32.924Z,1008.27
2018-09-20T12:02:32.922Z,1008.19
2018-09-20T12:03:32.919Z,1008.24
2018-09-20T12:04:32.918Z,1008.22
2018-09-20T12:05:32.916Z,1008.13
2018-09-20T12:06:32.916Z,1008.24
2018-09-20T12:07:32.913Z,1008.24
2018-09-20T12:08:32.913Z,1008.17